createdAt,value
2019-02-19T00:00:12.426Z,17.00
2019-02-19T00:02:41.026Z,16.70
2019-02-19T00:05:09.531Z,17.10
2019-02-19T00:07:38.031Z,16.70
2019-02-19T00:10:07.370Z,17.23
2019-02-19T00:12:35.888Z,16.33
2019-02-19T00:15:14.044Z,17.80
2019-02-19T00:17:41.474Z,16.93
2019-02-19T00:20:09.960Z,17.27
2019-02-19T00:22:38.479Z,17.47
2019-02-19T00:25:07.233Z,17.40
2019-02-19T00:27:35.750Z,17.23
2019-02-19T00:30:05.101Z,17.23
2019-02-19T00:32:33.615Z,16.67
2019-02-19T00:35:02.097Z,17.10
2019-02-19T00:37:30.614Z,17.33
2019-02-19T00:39:59.182Z,16.47
2019-02-19T00:42:27.716Z,17.97
2019-02-19T00:44:56.186Z,16.33
2019-02-19T00:47:24.707Z,16.23
2019-02-19T00:49:53.193Z,16.23
2019-02-19T00:52:21.677Z,16.97
2019-02-19T00:54:50.212Z,15.27
2019-02-19T00:57:18.707Z,17.13
2019-02-19T00:59:47.206Z,17.60
2019-02-19T01:02:15.699Z,16.37
2019-02-19T01:04:44.215Z,16.40
2019-02-19T01:07:12.710Z,17.10
2019-02-19T01:09:41.234Z,17.53
2019-02-19T01:12:09.729Z,17.10
2019-02-19T01:14:38.232Z,16.57
2019-02-19T01:17:06.740Z,17.33
2019-02-19T01:19:35.238Z,17.83
2019-02-19T01:22:03.719Z,16.40
2019-02-19T01:24:32.202Z,16.20
2019-02-19T01:27:00.692Z,16.77
2019-02-19T01:29:29.168Z,16.27
2019-02-19T01:31:57.657Z,16.97
2019-02-19T01:34:26.165Z,16.30
2019-02-19T01:36:54.625Z,16.50
2019-02-19T01:39:23.126Z,15.87
2019-02-19T01:41:51.593Z,16.20
2019-02-19T01:44:20.089Z,16.43
2019-02-19T01:46:48.553Z,16.20
2019-02-19T01:49:17.057Z,16.53
2019-02-19T01:51:45.557Z,15.67
2019-02-19T01:54:14.044Z,15.83
2019-02-19T01:56:42.519Z,15.40
2019-02-19T01:59:11.006Z,15.60
2019-02-19T02:01:39.469Z,16.03
2019-02-19T02:04:07.964Z,15.23
2019-02-19T02:06:36.424Z,16.03
2019-02-19T02:09:05.480Z,16.47
2019-02-19T02:11:33.959Z,16.07
2019-02-19T02:14:02.452Z,16.60
2019-02-19T02:16:30.931Z,16.00
2019-02-19T02:18:59.421Z,15.67
2019-02-19T02:21:27.891Z,15.80
2019-02-19T02:23:56.385Z,15.30
2019-02-19T02:26:24.862Z,16.07
2019-02-19T02:28:53.348Z,15.90
2019-02-19T02:31:21.826Z,16.07
2019-02-19T02:33:50.315Z,17.53
2019-02-19T02:36:18.807Z,16.33
2019-02-19T02:38:50.143Z,15.60
2019-02-19T02:41:18.624Z,16.47
2019-02-19T02:43:47.132Z,16.53
2019-02-19T02:46:15.601Z,16.50
2019-02-19T02:48:44.096Z,16.07
2019-02-19T02:51:12.581Z,15.80
2019-02-19T02:53:41.058Z,14.47
2019-02-19T02:56:09.546Z,16.13
2019-02-19T02:58:38.051Z,16.40
2019-02-19T03:01:06.504Z,16.40
2019-02-19T03:03:34.995Z,15.10
2019-02-19T03:06:10.637Z,16.20
2019-02-19T03:08:39.118Z,16.90
2019-02-19T03:11:07.677Z,15.87
2019-02-19T03:13:36.149Z,15.87
2019-02-19T03:16:04.668Z,16.07
2019-02-19T03:18:33.144Z,16.43
2019-02-19T03:21:01.631Z,16.40
2019-02-19T03:23:30.109Z,16.53
2019-02-19T03:25:58.593Z,16.60
2019-02-19T03:28:27.053Z,15.90
2019-02-19T03:30:55.557Z,16.17
2019-02-19T03:33:24.040Z,16.10
2019-02-19T03:35:52.517Z,16.60
2019-02-19T03:38:21.000Z,15.20
2019-02-19T03:40:49.506Z,15.13
2019-02-19T03:43:17.993Z,16.03
2019-02-19T03:45:46.497Z,15.70
2019-02-19T03:48:14.980Z,16.60
2019-02-19T03:50:43.488Z,16.03
2019-02-19T03:53:11.961Z,15.90
2019-02-19T03:55:40.528Z,16.33
2019-02-19T03:58:09.080Z,15.67
2019-02-19T04:00:37.663Z,15.83
2019-02-19T04:03:06.145Z,16.30
2019-02-19T04:05:34.731Z,15.83
2019-02-19T04:08:03.212Z,17.10
2019-02-19T04:10:31.774Z,16.00
2019-02-19T04:13:00.324Z,16.07
2019-02-19T04:15:28.908Z,16.00
2019-02-19T04:17:57.400Z,16.53
2019-02-19T04:20:25.884Z,16.03
2019-02-19T04:22:54.362Z,15.37
2019-02-19T04:25:22.885Z,16.20
2019-02-19T04:27:51.361Z,16.90
2019-02-19T04:30:19.867Z,16.70
2019-02-19T04:32:48.375Z,16.20
2019-02-19T04:35:16.878Z,16.50
2019-02-19T04:37:45.348Z,16.87
2019-02-19T04:40:13.839Z,17.03
2019-02-19T04:42:42.324Z,15.77
2019-02-19T04:45:10.844Z,16.53
2019-02-19T04:47:39.289Z,15.47
2019-02-19T04:50:08.845Z,16.03
2019-02-19T04:52:37.338Z,15.60
2019-02-19T04:55:06.759Z,17.20
2019-02-19T04:57:35.259Z,15.27
2019-02-19T05:00:04.858Z,15.60
2019-02-19T05:02:33.340Z,16.40
2019-02-19T05:05:01.839Z,17.13
2019-02-19T05:07:30.305Z,16.33
2019-02-19T05:09:58.784Z,16.10
2019-02-19T05:12:27.307Z,15.70
2019-02-19T05:14:55.793Z,16.27
2019-02-19T05:17:24.302Z,15.13
2019-02-19T05:19:52.783Z,15.90
2019-02-19T05:22:21.303Z,16.53
2019-02-19T05:24:49.782Z,15.60
2019-02-19T05:27:18.276Z,15.80
2019-02-19T05:29:46.740Z,15.07
2019-02-19T05:32:15.240Z,17.20
2019-02-19T05:34:43.705Z,15.27
2019-02-19T05:37:12.222Z,14.97
2019-02-19T05:39:40.681Z,16.27
2019-02-19T05:42:09.268Z,15.47
2019-02-19T05:44:37.745Z,15.40
2019-02-19T05:47:06.253Z,18.67
2019-02-19T05:49:34.733Z,16.47
2019-02-19T05:52:03.234Z,15.37
2019-02-19T05:54:31.823Z,15.60
2019-02-19T05:57:00.332Z,14.43
2019-02-19T05:59:28.819Z,15.23
2019-02-19T06:01:57.312Z,16.07
2019-02-19T06:04:25.799Z,14.93
2019-02-19T06:06:54.280Z,14.77
2019-02-19T06:09:22.790Z,14.47
2019-02-19T06:11:51.297Z,15.30
2019-02-19T06:14:19.825Z,14.30
2019-02-19T06:16:48.333Z,15.37
2019-02-19T06:19:16.823Z,14.40
2019-02-19T06:21:45.321Z,14.73
2019-02-19T06:24:13.807Z,14.73
2019-02-19T06:26:42.317Z,16.30
2019-02-19T06:29:10.782Z,15.00
2019-02-19T06:31:39.290Z,14.77
2019-02-19T06:34:07.769Z,14.30
2019-02-19T06:36:36.277Z,14.80
2019-02-19T06:39:05.549Z,14.73
2019-02-19T06:41:34.042Z,14.40
2019-02-19T06:44:02.560Z,14.27
2019-02-19T06:46:31.003Z,14.93
2019-02-19T06:48:59.505Z,14.80
2019-02-19T06:51:27.968Z,14.07
2019-02-19T06:53:56.501Z,14.07
2019-02-19T06:56:24.981Z,14.10
2019-02-19T06:58:53.471Z,13.90
2019-02-19T07:01:23.588Z,14.20
2019-02-19T07:03:59.654Z,14.53
2019-02-19T07:06:28.162Z,14.03
2019-02-19T07:08:56.639Z,14.33
2019-02-19T07:11:25.148Z,13.67
2019-02-19T07:13:53.653Z,13.93
2019-02-19T07:16:22.114Z,13.03
2019-02-19T07:18:50.614Z,14.03
2019-02-19T07:21:19.066Z,13.57
2019-02-19T07:23:47.577Z,15.20
2019-02-19T07:26:16.037Z,14.20
2019-02-19T07:28:44.518Z,13.83
2019-02-19T07:31:13.004Z,12.83
2019-02-19T07:33:41.506Z,13.80
2019-02-19T07:36:09.972Z,14.07
2019-02-19T07:38:38.476Z,13.23
2019-02-19T07:41:06.932Z,13.50
2019-02-19T07:43:35.441Z,13.57
2019-02-19T07:46:03.922Z,14.10
2019-02-19T07:48:32.417Z,12.83
2019-02-19T07:51:00.923Z,13.47
2019-02-19T07:53:29.380Z,13.03
2019-02-19T07:55:57.847Z,12.73
2019-02-19T07:58:26.329Z,13.57
2019-02-19T08:00:54.806Z,13.70
2019-02-19T08:03:23.291Z,12.10
2019-02-19T08:05:51.767Z,13.00
2019-02-19T08:08:20.253Z,12.10
2019-02-19T08:10:48.731Z,12.17
2019-02-19T08:13:17.224Z,12.43
2019-02-19T08:15:45.696Z,12.30
2019-02-19T08:18:14.174Z,12.93
2019-02-19T08:20:42.689Z,11.97
2019-02-19T08:23:11.168Z,12.57
2019-02-19T08:25:39.654Z,13.00
2019-02-19T08:28:08.139Z,13.10
2019-02-19T08:30:36.652Z,12.73
2019-02-19T08:33:05.125Z,12.73
2019-02-19T08:35:33.686Z,12.53
2019-02-19T08:38:02.166Z,12.40
2019-02-19T08:40:30.746Z,11.77
2019-02-19T08:42:59.221Z,12.10
2019-02-19T08:45:27.715Z,11.83
2019-02-19T08:47:56.194Z,13.60
2019-02-19T08:50:24.692Z,13.20
2019-02-19T08:52:53.163Z,13.90
2019-02-19T08:55:21.657Z,13.23
2019-02-19T08:57:50.117Z,12.80
2019-02-19T09:00:18.607Z,14.33
2019-02-19T09:02:47.087Z,14.20
2019-02-19T09:05:15.585Z,13.97
2019-02-19T09:07:44.071Z,14.57
2019-02-19T09:10:13.107Z,14.53
2019-02-19T09:12:41.576Z,14.77
2019-02-19T09:15:11.609Z,15.63
2019-02-19T09:17:40.065Z,14.50
2019-02-19T09:20:09.821Z,14.60
2019-02-19T09:22:38.302Z,14.57
2019-02-19T09:25:08.671Z,14.87
2019-02-19T09:27:37.176Z,15.50
2019-02-19T09:30:11.647Z,16.63
2019-02-19T09:32:40.179Z,15.40
2019-02-19T09:35:09.810Z,16.30
2019-02-19T09:37:38.298Z,16.03
2019-02-19T09:40:09.355Z,16.37
2019-02-19T09:42:37.843Z,16.37
2019-02-19T09:45:08.892Z,16.00
2019-02-19T09:47:37.389Z,16.50
2019-02-19T09:50:09.130Z,16.17
2019-02-19T09:52:37.611Z,16.57
2019-02-19T09:55:07.247Z,17.43
2019-02-19T09:57:35.741Z,16.67
2019-02-19T10:00:07.224Z,16.77
2019-02-19T10:02:35.703Z,18.97
2019-02-19T10:05:05.340Z,18.13
2019-02-19T10:07:33.824Z,18.00
2019-02-19T10:10:02.329Z,18.07
2019-02-19T10:12:30.816Z,19.80
2019-02-19T10:14:59.307Z,18.07
2019-02-19T10:17:27.780Z,17.87
2019-02-19T10:19:56.269Z,19.33
2019-02-19T10:22:24.749Z,18.57
2019-02-19T10:24:53.233Z,19.73
2019-02-19T10:27:21.711Z,19.03
2019-02-19T10:29:50.239Z,18.27
2019-02-19T10:32:18.688Z,20.23
2019-02-19T10:34:47.195Z,20.67
2019-02-19T10:37:15.734Z,20.17
2019-02-19T10:39:44.225Z,19.03
2019-02-19T10:42:12.702Z,19.37
2019-02-19T10:44:41.203Z,21.30
2019-02-19T10:47:09.738Z,20.30
2019-02-19T10:49:38.211Z,19.77
2019-02-19T10:52:06.717Z,20.30
2019-02-19T10:54:38.735Z,19.07
2019-02-19T10:57:07.217Z,19.23
2019-02-19T10:59:35.714Z,19.00
2019-02-19T11:02:04.216Z,19.03
2019-02-19T11:04:32.688Z,19.93
2019-02-19T11:07:01.173Z,19.47
2019-02-19T11:09:29.682Z,19.77
2019-02-19T11:11:58.197Z,19.40
2019-02-19T11:14:26.665Z,19.27
2019-02-19T11:16:55.136Z,18.77
2019-02-19T11:19:23.628Z,20.30
2019-02-19T11:21:52.171Z,18.97
2019-02-19T11:24:20.669Z,18.07
2019-02-19T11:26:49.144Z,18.30
2019-02-19T11:29:17.627Z,18.77
2019-02-19T11:31:46.127Z,18.77
2019-02-19T11:34:14.608Z,18.60
2019-02-19T11:36:43.097Z,18.27
2019-02-19T11:39:12.217Z,17.07
2019-02-19T11:41:40.703Z,15.97
2019-02-19T11:44:09.181Z,16.03
2019-02-19T11:46:37.683Z,15.50
2019-02-19T11:49:06.177Z,16.47
2019-02-19T11:51:34.696Z,15.87
2019-02-19T11:54:03.165Z,14.73
2019-02-19T11:56:31.655Z,15.30
2019-02-19T11:59:00.140Z,15.93
2019-02-19T12:01:28.653Z,13.73
2019-02-19T12:03:57.104Z,15.03
2019-02-19T12:06:25.650Z,15.07
2019-02-19T12:08:54.136Z,15.33
2019-02-19T12:11:22.646Z,15.33
2019-02-19T12:13:51.127Z,15.43
2019-02-19T12:16:19.635Z,15.87
2019-02-19T12:18:48.090Z,15.30
2019-02-19T12:21:16.575Z,15.33
2019-02-19T12:23:45.057Z,14.97
2019-02-19T12:26:13.573Z,14.83
2019-02-19T12:28:42.058Z,14.80
2019-02-19T12:31:10.567Z,15.87
2019-02-19T12:33:39.039Z,14.53
2019-02-19T12:36:07.537Z,15.73
2019-02-19T12:38:36.024Z,15.70
2019-02-19T12:41:04.520Z,15.77
2019-02-19T12:43:33.004Z,14.90
2019-02-19T12:46:01.500Z,14.73
2019-02-19T12:48:29.983Z,15.27
2019-02-19T12:50:58.492Z,14.17
2019-02-19T12:53:26.979Z,14.07
2019-02-19T12:55:55.502Z,15.03
2019-02-19T12:58:23.965Z,14.60
2019-02-19T13:00:52.473Z,14.87
2019-02-19T13:03:21.314Z,15.83
2019-02-19T13:05:50.675Z,14.93
2019-02-19T13:08:19.155Z,16.50
2019-02-19T13:10:47.651Z,16.53
2019-02-19T13:13:16.132Z,16.83
2019-02-19T13:15:44.660Z,16.60
2019-02-19T13:18:13.150Z,16.97
2019-02-19T13:20:41.644Z,16.83
2019-02-19T13:23:10.157Z,16.67
2019-02-19T13:25:38.669Z,16.83
2019-02-19T13:28:07.150Z,16.47
2019-02-19T13:30:35.641Z,16.20
2019-02-19T13:33:06.331Z,14.40
2019-02-19T13:35:34.831Z,11.83
2019-02-19T13:38:03.309Z,12.43
2019-02-19T13:40:31.813Z,12.67
2019-02-19T13:43:00.296Z,11.93
2019-02-19T13:45:28.813Z,11.80
2019-02-19T13:48:05.501Z,10.87
2019-02-19T13:50:30.552Z,11.13
2019-02-19T13:53:03.625Z,11.40
2019-02-19T13:55:33.768Z,11.30
2019-02-19T13:58:02.244Z,11.07
2019-02-19T14:00:32.464Z,10.17
2019-02-19T14:03:00.971Z,10.57
2019-02-19T14:05:29.468Z,10.77
2019-02-19T14:07:57.944Z,9.83
2019-02-19T14:10:26.436Z,10.57
2019-02-19T14:12:54.935Z,10.70
2019-02-19T14:15:40.150Z,10.33
2019-02-19T14:18:10.267Z,10.00
2019-02-19T14:20:46.198Z,10.27
2019-02-19T14:23:22.357Z,9.53
2019-02-19T14:26:10.872Z,9.97
2019-02-19T14:28:43.803Z,9.90
2019-02-19T14:31:31.834Z,9.50
2019-02-19T14:34:07.685Z,10.20
2019-02-19T14:36:53.737Z,9.20
2019-02-19T14:39:29.943Z,8.90
2019-02-19T14:42:02.828Z,8.90
2019-02-19T14:44:47.984Z,9.20
2019-02-19T14:47:30.118Z,10.03
2019-02-19T14:50:09.439Z,9.13
2019-02-19T14:52:39.564Z,9.47
2019-02-19T14:55:27.976Z,9.23
2019-02-19T14:57:58.117Z,8.97
2019-02-19T15:00:44.663Z,8.50
2019-02-19T15:03:23.863Z,9.65
2019-02-19T15:06:10.224Z,8.77
2019-02-19T15:08:40.381Z,9.57
2019-02-19T15:11:19.101Z,9.90
2019-02-19T15:13:55.005Z,8.30
2019-02-19T15:16:30.979Z,8.77
2019-02-19T15:19:10.121Z,8.40
2019-02-19T15:24:36.390Z,8.93
2019-02-19T15:27:12.198Z,7.97
2019-02-19T15:29:45.017Z,8.20
2019-02-19T15:32:31.607Z,8.57
2019-02-19T15:35:17.815Z,8.07
2019-02-19T15:37:53.712Z,7.83
2019-02-19T15:40:35.736Z,8.23
2019-02-19T15:43:05.919Z,7.60
2019-02-19T15:45:54.226Z,7.73
2019-02-19T15:48:40.882Z,7.47
2019-02-19T15:51:23.011Z,7.63
2019-02-19T15:53:58.797Z,7.33
2019-02-19T15:59:40.268Z,6.80
2019-02-19T16:02:10.389Z,7.17
2019-02-19T16:04:40.518Z,6.73
2019-02-19T16:07:19.261Z,6.97
2019-02-19T16:10:05.297Z,7.20
2019-02-19T16:12:47.455Z,6.80
2019-02-19T16:15:17.581Z,7.53
2019-02-19T16:18:02.570Z,7.03
2019-02-19T16:20:35.641Z,6.93
2019-02-19T16:23:08.780Z,6.97
2019-02-19T16:25:50.802Z,6.13
2019-02-19T16:28:30.164Z,6.73
2019-02-19T16:31:03.023Z,6.50
2019-02-19T16:33:41.638Z,6.80
2019-02-19T16:36:11.885Z,6.03
2019-02-19T16:38:44.805Z,6.77
2019-02-19T16:41:18.089Z,6.40
2019-02-19T16:43:48.229Z,6.53
2019-02-19T16:46:18.345Z,6.87
2019-02-19T16:48:57.859Z,6.33
2019-02-19T16:51:28.001Z,6.07
2019-02-19T16:54:04.072Z,5.93
2019-02-19T16:56:34.192Z,6.40
2019-02-19T16:59:20.417Z,6.23
2019-02-19T17:01:53.308Z,5.77
2019-02-19T17:04:39.435Z,5.50
2019-02-19T17:07:21.877Z,5.27
2019-02-19T17:09:52.026Z,6.23
2019-02-19T17:12:27.892Z,5.60
2019-02-19T17:15:09.951Z,5.10
2019-02-19T17:17:40.051Z,5.33
2019-02-19T17:20:21.292Z,6.33
2019-02-19T17:22:47.612Z,8.97
2019-02-19T17:25:17.760Z,6.00
2019-02-19T17:27:47.878Z,6.10
2019-02-19T17:30:30.195Z,5.70
2019-02-19T17:33:00.314Z,5.13
2019-02-19T17:35:30.437Z,4.67
2019-02-19T17:38:00.553Z,5.30
2019-02-19T17:40:46.901Z,5.00
2019-02-19T17:43:25.854Z,4.80
2019-02-19T17:46:07.974Z,4.57
2019-02-19T17:48:47.327Z,4.30
2019-02-19T17:51:26.761Z,4.70
2019-02-19T17:54:11.983Z,4.30
2019-02-19T17:56:54.446Z,4.70
2019-02-19T17:59:32.131Z,4.20
2019-02-19T18:02:02.280Z,3.90
2019-02-19T18:04:34.869Z,4.83
2019-02-19T18:07:04.999Z,4.00
2019-02-19T18:09:40.706Z,4.13
2019-02-19T18:14:56.536Z,4.23
2019-02-19T18:17:29.495Z,3.90
2019-02-19T18:19:57.956Z,3.30
2019-02-19T18:22:26.456Z,4.30
2019-02-19T18:24:54.928Z,3.70
2019-02-19T18:27:23.409Z,3.80
2019-02-19T18:29:51.866Z,3.60
2019-02-19T18:32:20.347Z,3.43
2019-02-19T18:34:48.802Z,3.50
2019-02-19T18:37:17.308Z,3.70
2019-02-19T18:39:45.781Z,3.33
2019-02-19T18:42:14.284Z,3.73
2019-02-19T18:44:42.749Z,3.37
2019-02-19T18:47:11.261Z,3.50
2019-02-19T18:49:39.852Z,3.23
2019-02-19T18:52:08.344Z,4.10
2019-02-19T18:54:36.837Z,3.53
2019-02-19T18:57:06.908Z,3.60
2019-02-19T18:59:35.412Z,4.00
2019-02-19T19:02:03.920Z,3.50
2019-02-19T19:04:32.446Z,3.73
2019-02-19T19:07:00.932Z,3.57
2019-02-19T19:09:29.403Z,3.63
2019-02-19T19:11:57.894Z,3.23
2019-02-19T19:14:26.365Z,3.10
2019-02-19T19:16:54.858Z,3.70
2019-02-19T19:19:23.329Z,3.80
2019-02-19T19:21:51.828Z,4.80
2019-02-19T19:24:23.310Z,3.63
2019-02-19T19:26:51.882Z,3.83
2019-02-19T19:29:20.513Z,5.30
2019-02-19T19:31:49.578Z,5.27
2019-02-19T19:34:18.072Z,6.47
2019-02-19T19:36:46.540Z,4.67
2019-02-19T19:39:15.012Z,5.17
2019-02-19T19:41:43.489Z,5.33
2019-02-19T19:44:11.987Z,5.23
2019-02-19T19:46:40.524Z,5.47
2019-02-19T19:49:09.035Z,5.33
2019-02-19T19:51:37.499Z,3.40
2019-02-19T19:54:06.000Z,3.33
2019-02-19T19:56:34.458Z,3.80
2019-02-19T19:59:02.958Z,4.13
2019-02-19T20:01:31.423Z,4.03
2019-02-19T20:03:59.902Z,4.07
2019-02-19T20:06:28.372Z,4.47
2019-02-19T20:08:56.872Z,4.27
2019-02-19T20:11:25.332Z,3.90
2019-02-19T20:13:53.830Z,3.83
2019-02-19T20:16:22.313Z,4.10
2019-02-19T20:18:50.791Z,4.30
2019-02-19T20:21:26.386Z,4.67
2019-02-19T20:23:50.157Z,3.90
2019-02-19T20:26:18.661Z,3.97
2019-02-19T20:28:47.150Z,4.40
2019-02-19T20:31:15.623Z,4.80
2019-02-19T20:33:44.126Z,4.33
2019-02-19T20:36:12.614Z,4.83
2019-02-19T20:38:41.104Z,5.00
2019-02-19T20:41:09.579Z,4.87
2019-02-19T20:43:38.081Z,5.40
2019-02-19T20:46:06.577Z,4.40
2019-02-19T20:48:35.066Z,4.93
2019-02-19T20:51:03.545Z,5.17
2019-02-19T20:53:32.034Z,4.70
2019-02-19T20:56:00.504Z,5.13
2019-02-19T20:58:29.024Z,5.57
2019-02-19T21:00:57.466Z,5.43
2019-02-19T21:03:25.963Z,5.20
2019-02-19T21:05:54.470Z,6.30
2019-02-19T21:08:22.919Z,6.80
2019-02-19T21:10:51.382Z,5.90
2019-02-19T21:13:19.883Z,5.50
2019-02-19T21:15:48.362Z,5.83
2019-02-19T21:18:23.440Z,6.20
2019-02-19T21:20:53.205Z,6.23
2019-02-19T21:23:21.673Z,6.30
2019-02-19T21:25:50.172Z,6.50
2019-02-19T21:28:39.684Z,5.83
2019-02-19T21:31:08.181Z,5.73
2019-02-19T21:33:36.695Z,5.63
2019-02-19T21:36:05.177Z,5.07
2019-02-19T21:38:33.674Z,5.50
2019-02-19T21:41:02.157Z,5.13
2019-02-19T21:43:30.702Z,5.43
2019-02-19T21:45:59.188Z,4.80
2019-02-19T21:48:27.675Z,4.33
2019-02-19T21:50:56.206Z,4.37
2019-02-19T21:53:24.637Z,4.50
2019-02-19T21:55:53.112Z,4.33
2019-02-19T21:58:21.625Z,4.00
2019-02-19T22:00:50.112Z,4.10
2019-02-19T22:03:18.600Z,3.80
2019-02-19T22:05:47.095Z,3.87
2019-02-19T22:08:15.602Z,3.63
2019-02-19T22:10:44.052Z,4.13
2019-02-19T22:13:12.621Z,3.40
2019-02-19T22:15:41.097Z,3.53
2019-02-19T22:18:09.554Z,3.60
2019-02-19T22:20:45.405Z,3.67
2019-02-19T22:23:13.918Z,3.30
2019-02-19T22:25:42.446Z,3.50
2019-02-19T22:28:10.992Z,2.67
2019-02-19T22:30:39.469Z,3.10
2019-02-19T22:33:07.965Z,3.43
2019-02-19T22:35:36.502Z,2.80
2019-02-19T22:38:04.977Z,2.40
2019-02-19T22:40:33.469Z,2.53
2019-02-19T22:43:01.949Z,2.50
2019-02-19T22:45:30.465Z,3.00
2019-02-19T22:47:58.933Z,2.67
2019-02-19T22:50:27.430Z,3.07
2019-02-19T22:52:55.960Z,3.00
2019-02-19T22:55:42.209Z,3.13
2019-02-19T22:58:10.825Z,3.53
2019-02-19T23:00:49.791Z,3.77
2019-02-19T23:03:27.886Z,4.20
2019-02-19T23:05:56.371Z,3.70
2019-02-19T23:08:24.996Z,3.67
2019-02-19T23:10:53.473Z,3.90
2019-02-19T23:13:21.944Z,3.97
2019-02-19T23:15:50.500Z,4.20
2019-02-19T23:18:18.958Z,4.60
2019-02-19T23:20:47.641Z,4.33
2019-02-19T23:23:16.084Z,4.47
2019-02-19T23:25:44.640Z,4.90
2019-02-19T23:28:13.121Z,4.50
2019-02-19T23:30:41.623Z,4.40
2019-02-19T23:33:10.104Z,5.20
2019-02-19T23:35:43.201Z,5.30
2019-02-19T23:38:11.724Z,5.33
2019-02-19T23:40:40.206Z,5.47
2019-02-19T23:43:08.709Z,5.53
2019-02-19T23:45:37.272Z,6.07
2019-02-19T23:48:05.736Z,5.87
2019-02-19T23:50:34.241Z,5.87
2019-02-19T23:53:02.716Z,6.50
2019-02-19T23:55:31.236Z,6.50
2019-02-19T23:57:59.763Z,6.93
